Time;durP1;ratioP1;P1;durP2;ratioP2;P2;SDS_P1;SDS_P2;PMS_P1;PMS_P2;Temp;Humidity;BMP_temperature;BMP_pressure;BME280_temperature;BME280_humidity;BME280_pressure;Samples;Min_cycle;Max_cycle;Signal;HPM_P1;HPM_P2
2023/05/21 00:00:29;;;;;;;16.67;12.87;;;;;;;18.49;nan;98998.78;5029150;28;20219;-80
2023/05/21 00:02:56;;;;;;;12.93;11.57;;;;;;;18.45;nan;98997.47;5029400;28;20199;-80
2023/05/21 00:05:22;;;;;;;18.20;12.30;;;;;;;18.44;nan;99003.75;5030884;28;20512;-79
2023/05/21 00:07:48;;;;;;;13.80;11.87;;;;;;;18.41;nan;98992.63;5033276;28;21479;-79
2023/05/21 00:10:13;;;;;;;17.27;13.33;;;;;;;18.32;nan;98989.13;5027546;28;20481;-78
2023/05/21 00:12:40;;;;;;;13.83;11.77;;;;;;;18.23;nan;98995.41;5030781;28;20204;-80
2023/05/21 00:15:06;;;;;;;15.60;11.80;;;;;;;18.15;nan;98988.25;5029935;28;20216;-80
2023/05/21 00:17:32;;;;;;;15.87;11.20;;;;;;;18.11;nan;98985.06;5026917;28;21106;-79
2023/05/21 00:19:58;;;;;;;13.37;11.80;;;;;;;18.09;nan;98978.22;5029088;28;20482;-80
2023/05/21 00:22:24;;;;;;;14.10;12.60;;;;;;;18.09;nan;98975.56;5029545;28;20840;-79
2023/05/21 00:24:49;;;;;;;18.00;14.97;;;;;;;18.09;nan;98983.56;5030193;28;20254;-80
2023/05/21 00:27:15;;;;;;;14.27;12.20;;;;;;;18.06;nan;98986.53;5028285;28;20216;-78
2023/05/21 00:29:40;;;;;;;15.23;12.73;;;;;;;18.02;nan;98979.88;5031895;28;20217;-80
2023/05/21 00:32:06;;;;;;;15.97;12.37;;;;;;;18.01;nan;98988.84;5025369;28;20290;-80
2023/05/21 00:34:31;;;;;;;16.17;13.20;;;;;;;17.98;nan;98982.00;5022037;28;20492;-79
2023/05/21 00:36:57;;;;;;;15.10;11.97;;;;;;;17.94;nan;98986.00;5010540;28;20223;-80
2023/05/21 00:39:23;;;;;;;15.90;12.60;;;;;;;17.93;nan;98992.31;5010692;28;20225;-80
2023/05/21 00:41:48;;;;;;;14.03;11.77;;;;;;;17.93;nan;98989.66;5002912;28;20771;-80
2023/05/21 00:44:15;;;;;;;14.50;11.87;;;;;;;17.89;nan;98983.00;4991523;28;20485;-80
2023/05/21 00:46:43;;;;;;;15.37;12.40;;;;;;;17.88;nan;98978.69;4992447;28;20222;-80
2023/05/21 00:49:09;;;;;;;16.50;12.20;;;;;;;17.88;nan;98979.50;4992090;28;20480;-80
2023/05/21 00:51:35;;;;;;;13.97;12.03;;;;;;;17.85;nan;98977.19;4989171;28;20505;-80
2023/05/21 00:54:01;;;;;;;14.00;12.33;;;;;;;17.82;nan;98977.50;5009887;28;20564;-79
2023/05/21 00:56:26;;;;;;;19.37;13.30;;;;;;;17.79;nan;98974.31;4989716;28;20348;-79
2023/05/21 00:58:55;;;;;;;14.87;13.30;;;;;;;17.75;nan;98976.44;4989619;28;20227;-79
2023/05/21 01:01:24;;;;;;;16.60;13.17;;;;;;;17.73;nan;98981.06;4994930;28;20224;-80
2023/05/21 01:03:51;;;;;;;16.77;13.00;;;;;;;17.69;nan;98977.06;5009489;28;20546;-79
2023/05/21 01:06:16;;;;;;;16.13;14.43;;;;;;;17.70;nan;98984.03;5010960;28;20839;-79
2023/05/21 01:08:42;;;;;;;15.67;12.50;;;;;;;17.70;nan;98976.06;5009452;28;20228;-80
2023/05/21 01:11:09;;;;;;;15.50;13.67;;;;;;;17.67;nan;98976.38;4992230;28;20218;-78
2023/05/21 01:13:38;;;;;;;14.87;12.33;;;;;;;17.62;nan;98974.19;4990138;28;20601;-80
2023/05/21 01:16:07;;;;;;;16.53;14.00;;;;;;;17.58;nan;98980.84;5010495;28;20682;-80
2023/05/21 01:18:34;;;;;;;17.50;13.57;;;;;;;17.57;nan;98973.00;5008348;28;20492;-80
2023/05/21 01:21:03;;;;;;;17.50;13.90;;;;;;;17.53;nan;98976.97;5008868;28;20496;-79
2023/05/21 01:23:29;;;;;;;16.77;13.17;;;;;;;17.46;nan;98971.44;4990324;28;20509;-80
2023/05/21 01:25:54;;;;;;;17.93;13.93;;;;;;;17.40;nan;98969.44;5007686;28;20495;-80
2023/05/21 01:28:20;;;;;;;20.67;14.03;;;;;;;17.35;nan;98974.38;5011841;28;20306;-80
2023/05/21 01:30:46;;;;;;;14.90;12.50;;;;;;;17.35;nan;98972.56;5009562;28;20226;-80
2023/05/21 01:33:39;;;;;;;18.90;14.10;;;;;;;17.34;nan;98970.91;5012044;28;20205;-80
2023/05/21 01:36:17;;;;;;;17.63;12.67;;;;;;;17.35;nan;98969.91;5027097;28;20479;-79
2023/05/21 01:39:15;;;;;;;21.33;15.17;;;;;;;17.33;nan;98961.25;5026310;28;20470;-80
2023/05/21 01:41:43;;;;;;;18.67;14.03;;;;;;;17.29;nan;98959.91;5025882;28;20461;-79
2023/05/21 01:44:10;;;;;;;18.67;14.30;;;;;;;17.26;nan;98970.84;5027944;28;20848;-80
2023/05/21 01:46:37;;;;;;;17.93;14.53;;;;;;;17.22;nan;98972.97;5007698;28;20458;-80
2023/05/21 01:49:04;;;;;;;19.20;14.70;;;;;;;17.21;nan;98971.31;5025816;28;20470;-79
2023/05/21 01:51:30;;;;;;;17.57;14.33;;;;;;;17.20;nan;98968.78;5012029;28;20481;-79
2023/05/21 01:53:57;;;;;;;18.90;14.43;;;;;;;17.17;nan;98969.09;5011727;28;20488;-79
2023/05/21 01:56:24;;;;;;;17.13;13.70;;;;;;;17.18;nan;98968.13;5029331;28;20480;-80
2023/05/21 01:58:51;;;;;;;20.13;16.37;;;;;;;17.17;nan;98966.44;5013427;28;20210;-80
2023/05/21 02:01:16;;;;;;;20.00;15.50;;;;;;;17.13;nan;98957.97;5013776;28;20456;-79
2023/05/21 02:03:41;;;;;;;18.13;15.93;;;;;;;17.11;nan;98964.44;5027612;28;20590;-81
2023/05/21 02:06:07;;;;;;;17.43;14.07;;;;;;;17.09;nan;98961.09;5028278;28;20272;-80
2023/05/21 02:08:32;;;;;;;17.30;14.73;;;;;;;17.10;nan;98965.44;5011722;28;20201;-79
2023/05/21 02:10:58;;;;;;;21.20;15.90;;;;;;;17.08;nan;98960.25;5029580;28;20637;-78
2023/05/21 02:13:23;;;;;;;17.77;14.73;;;;;;;17.05;nan;98957.91;5025508;28;20320;-79
2023/05/21 02:15:50;;;;;;;18.03;12.67;;;;;;;17.03;nan;98959.88;5028940;28;20313;-79
2023/05/21 02:18:17;;;;;;;23.87;15.93;;;;;;;17.01;nan;98962.72;5011644;28;20220;-79
2023/05/21 02:20:43;;;;;;;17.97;14.40;;;;;;;17.01;nan;98956.56;5027176;28;20574;-80
2023/05/21 02:23:08;;;;;;;17.90;14.13;;;;;;;17.00;nan;98953.06;5024863;28;20559;-80
2023/05/21 02:25:34;;;;;;;19.07;15.03;;;;;;;16.99;nan;98962.03;5025186;28;21001;-80
2023/05/21 02:28:01;;;;;;;21.27;16.90;;;;;;;16.98;nan;98955.03;5027638;28;20742;-79
2023/05/21 02:30:26;;;;;;;20.25;15.63;;;;;;;16.95;nan;98958.00;5025060;28;20263;-80
2023/05/21 02:32:52;;;;;;;17.50;15.63;;;;;;;16.92;nan;98950.34;5031160;28;20733;-81
2023/05/21 02:35:18;;;;;;;21.03;14.87;;;;;;;16.87;nan;98960.59;5018032;28;20224;-80
2023/05/21 02:37:43;;;;;;;22.93;15.40;;;;;;;16.81;nan;98953.25;5091691;22;20235;-80
2023/05/21 02:40:09;;;;;;;19.47;15.00;;;;;;;16.78;nan;98957.03;5046875;28;20748;-80
2023/05/21 02:42:38;;;;;;;20.33;15.20;;;;;;;16.76;nan;98958.97;5042778;28;20224;-80
2023/05/21 02:45:08;;;;;;;18.13;15.55;;;;;;;16.72;nan;98959.47;5045068;28;20226;-80
2023/05/21 02:47:34;;;;;;;20.83;16.35;;;;;;;16.68;nan;98950.97;5039154;28;20224;-80
2023/05/21 02:50:00;;;;;;;21.97;15.40;;;;;;;16.66;nan;98954.75;5042072;28;20683;-80
2023/05/21 02:52:26;;;;;;;21.13;15.98;;;;;;;16.63;nan;98960.34;5037834;28;20245;-80
2023/05/21 02:54:52;;;;;;;23.60;16.00;;;;;;;16.59;nan;98955.38;5038989;28;20524;-80
2023/05/21 02:57:17;;;;;;;18.80;15.60;;;;;;;16.59;nan;98954.53;5052634;28;20285;-80
2023/05/21 02:59:44;;;;;;;24.47;18.07;;;;;;;16.58;nan;98953.72;5036937;28;20219;-81
2023/05/21 03:02:09;;;;;;;22.40;16.20;;;;;;;16.57;nan;98961.81;5039820;28;20222;-79
2023/05/21 03:04:44;;;;;;;21.07;15.63;;;;;;;16.56;nan;98960.97;5035753;28;20792;-80
2023/05/21 03:07:13;;;;;;;22.20;16.30;;;;;;;16.56;nan;98963.63;5036316;28;20457;-80
2023/05/21 03:09:40;;;;;;;22.73;17.02;;;;;;;16.54;nan;98962.94;5039773;28;20463;-80
2023/05/21 03:12:07;;;;;;;20.63;16.45;;;;;;;16.56;nan;98957.50;5040985;28;20524;-80
2023/05/21 03:14:32;;;;;;;25.30;16.87;;;;;;;16.54;nan;98964.75;5056671;28;20286;-80
2023/05/21 03:16:58;;;;;;;18.50;15.53;;;;;;;16.51;nan;98959.75;5036248;28;20487;-80
2023/05/21 03:19:23;;;;;;;22.10;17.10;;;;;;;16.49;nan;98964.38;5052275;28;20223;-80
2023/05/21 03:21:49;;;;;;;25.33;17.57;;;;;;;16.50;nan;98960.72;5053705;28;20221;-79
2023/05/21 03:24:14;;;;;;;23.30;16.57;;;;;;;16.50;nan;98961.59;5040090;28;20236;-80
2023/05/21 03:26:40;;;;;;;21.97;15.70;;;;;;;16.50;nan;98972.19;5039284;28;20217;-80
2023/05/21 03:29:06;;;;;;;24.90;18.00;;;;;;;16.49;nan;98973.16;5040962;28;20585;-80
2023/05/21 03:31:33;;;;;;;21.23;16.70;;;;;;;16.48;nan;98971.50;5041855;28;20271;-79
2023/05/21 03:34:07;;;;;;;26.35;17.80;;;;;;;16.46;nan;98975.28;5038580;28;21291;-80
2023/05/21 03:36:32;;;;;;;26.77;17.55;;;;;;;16.36;nan;98978.00;5041266;28;20236;-80
2023/05/21 03:38:58;;;;;;;23.80;16.03;;;;;;;16.31;nan;98982.91;5054344;28;20225;-80
2023/05/21 03:41:23;;;;;;;21.83;17.20;;;;;;;16.28;nan;98983.22;5053972;28;20221;-80
2023/05/21 03:43:54;;;;;;;22.77;16.42;;;;;;;16.25;nan;98984.34;5050906;28;20224;-80
2023/05/21 03:46:22;;;;;;;25.45;18.48;;;;;;;16.22;nan;98982.00;5056853;28;20940;-80
2023/05/21 03:48:59;;;;;;;24.73;16.50;;;;;;;16.18;nan;98991.25;5051952;28;20222;-80
2023/05/21 03:51:29;;;;;;;24.00;17.63;;;;;;;16.18;nan;98991.25;5053840;28;20229;-80
2023/05/21 03:53:56;;;;;;;21.20;16.40;;;;;;;16.18;nan;98993.88;5051628;28;20223;-81
2023/05/21 03:56:21;;;;;;;28.25;17.10;;;;;;;16.20;nan;98999.00;5052194;28;20894;-80
2023/05/21 03:58:47;;;;;;;22.80;16.07;;;;;;;16.20;nan;99001.66;5072984;28;20318;-80
2023/05/21 04:01:13;;;;;;;21.57;16.27;;;;;;;16.18;nan;98999.19;5069864;28;20240;-80
2023/05/21 04:03:38;;;;;;;20.47;15.20;;;;;;;16.15;nan;98995.00;5058105;28;20245;-80
2023/05/21 04:06:05;;;;;;;26.55;20.52;;;;;;;16.17;nan;99004.63;5051899;28;20999;-80
2023/05/21 04:08:31;;;;;;;21.95;18.90;;;;;;;16.15;nan;98995.00;5050521;28;20218;-80
2023/05/21 04:10:56;;;;;;;26.20;17.50;;;;;;;16.12;nan;99005.91;5051713;28;20278;-80
2023/05/21 04:13:22;;;;;;;22.97;18.20;;;;;;;16.11;nan;99011.34;5054271;28;20303;-80
2023/05/21 04:15:47;;;;;;;23.40;17.60;;;;;;;16.12;nan;99013.00;5048167;28;20236;-80
2023/05/21 04:18:19;;;;;;;28.98;17.48;;;;;;;16.12;nan;99013.88;5049554;28;20294;-80
2023/05/21 04:20:45;;;;;;;26.80;18.45;;;;;;;16.12;nan;99016.50;5054293;28;20221;-80
2023/05/21 04:23:10;;;;;;;25.30;17.77;;;;;;;16.14;nan;99019.81;5046460;28;20257;-80
2023/05/21 04:25:37;;;;;;;28.33;19.20;;;;;;;16.15;nan;99023.34;5050425;28;20215;-80
2023/05/21 04:28:03;;;;;;;24.13;17.70;;;;;;;16.17;nan;99023.16;5066700;28;20219;-80
2023/05/21 04:30:29;;;;;;;22.85;15.73;;;;;;;16.19;nan;99029.16;5069783;28;20442;-80
2023/05/21 04:32:54;;;;;;;28.13;18.97;;;;;;;16.20;nan;99026.34;5064816;28;20486;-80
2023/05/21 04:35:20;;;;;;;26.43;20.20;;;;;;;16.24;nan;99034.84;5046520;28;20654;-80
2023/05/21 04:37:45;;;;;;;28.37;18.63;;;;;;;16.26;nan;99032.91;5050688;28;20246;-80
2023/05/21 04:40:17;;;;;;;23.53;16.50;;;;;;;16.28;nan;99029.13;5050439;28;20244;-80
2023/05/21 04:42:47;;;;;;;20.85;17.58;;;;;;;16.31;nan;99041.22;5047553;28;20218;-79
2023/05/21 04:45:13;;;;;;;24.10;18.80;;;;;;;16.31;nan;99034.13;5047205;28;20298;-81
2023/05/21 04:47:42;;;;;;;21.90;16.20;;;;;;;16.35;nan;99037.28;5049242;28;21089;-80
2023/05/21 04:50:09;;;;;;;19.63;15.13;;;;;;;16.36;nan;99031.84;5067713;28;20226;-80
2023/05/21 04:52:35;;;;;;;19.23;15.45;;;;;;;16.36;nan;99039.81;5048198;28;20221;-80
2023/05/21 04:55:01;;;;;;;25.15;17.50;;;;;;;16.37;nan;99043.28;5050059;28;20237;-79
2023/05/21 04:57:28;;;;;;;23.48;19.17;;;;;;;16.41;nan;99044.66;5052917;28;20224;-80
2023/05/21 04:59:54;;;;;;;28.05;17.77;;;;;;;16.46;nan;99044.22;5051413;28;20289;-80
2023/05/21 05:02:19;;;;;;;27.00;18.83;;;;;;;16.51;nan;99048.06;5055429;28;20326;-80
2023/05/21 05:04:45;;;;;;;19.70;16.30;;;;;;;16.57;nan;99050.13;5047577;28;20770;-79
2023/05/21 05:07:11;;;;;;;24.20;18.00;;;;;;;16.66;nan;99050.22;5051932;28;20259;-80
2023/05/21 05:09:36;;;;;;;20.00;17.03;;;;;;;16.72;nan;99045.16;5049540;28;20466;-81
2023/05/21 05:12:02;;;;;;;24.10;18.23;;;;;;;16.81;nan;99048.75;5050093;28;20217;-80
2023/05/21 05:14:28;;;;;;;21.97;17.10;;;;;;;16.89;nan;99040.03;5049463;28;20314;-80
2023/05/21 05:16:58;;;;;;;24.80;16.23;;;;;;;16.96;nan;99047.25;5048717;28;20254;-80
2023/05/21 05:19:23;;;;;;;26.95;17.63;;;;;;;17.08;nan;99039.88;5046612;28;20239;-80
2023/05/21 05:21:49;;;;;;;25.07;18.13;;;;;;;17.22;nan;99046.44;5046252;28;21282;-79
2023/05/21 05:24:15;;;;;;;22.50;18.00;;;;;;;17.35;nan;99038.09;5049863;28;20224;-80
2023/05/21 05:26:41;;;;;;;22.23;17.25;;;;;;;17.47;nan;99037.69;5052845;28;21383;-79
2023/05/21 05:29:06;;;;;;;21.57;17.83;;;;;;;17.58;nan;99035.75;5044934;28;20225;-80
2023/05/21 05:31:31;;;;;;;26.30;18.87;;;;;;;17.66;nan;99035.78;5048120;28;20222;-80
2023/05/21 05:33:57;;;;;;;20.20;17.10;;;;;;;17.71;nan;99036.16;5052561;28;20286;-80
2023/05/21 05:36:23;;;;;;;23.45;19.25;;;;;;;17.78;nan;99037.19;5044683;28;21050;-80
2023/05/21 05:38:48;;;;;;;22.77;18.37;;;;;;;17.87;nan;99032.78;5047261;28;20228;-80
2023/05/21 05:41:15;;;;;;;23.60;16.00;;;;;;;17.92;nan;99035.81;5045197;28;20239;-80
2023/05/21 05:43:40;;;;;;;23.87;17.63;;;;;;;18.01;nan;99041.97;5045497;28;20469;-80
2023/05/21 05:46:06;;;;;;;19.40;15.67;;;;;;;18.12;nan;99028.44;5036526;28;20220;-80
2023/05/21 05:48:32;;;;;;;21.60;15.57;;;;;;;18.28;nan;99036.47;5042785;28;20806;-80
2023/05/21 05:50:58;;;;;;;29.00;17.20;;;;;;;18.44;nan;99035.66;5057042;28;20603;-80
2023/05/21 05:53:24;;;;;;;19.52;16.65;;;;;;;18.59;nan;99033.22;5057523;28;20698;-80
2023/05/21 05:55:50;;;;;;;24.87;18.00;;;;;;;18.80;nan;99032.81;5057906;28;20448;-80
2023/05/21 05:58:16;;;;;;;22.77;16.30;;;;;;;19.08;nan;99022.66;5053566;28;20697;-80
2023/05/21 06:01:04;;;;;;;21.83;16.07;;;;;;;19.41;nan;99025.28;5051351;28;20912;-80
2023/05/21 06:03:30;;;;;;;25.80;17.50;;;;;;;19.73;nan;99020.94;5056058;28;20567;-80
2023/05/21 06:05:56;;;;;;;23.98;19.05;;;;;;;20.07;nan;99021.50;5056686;28;21017;-82
2023/05/21 06:08:23;;;;;;;19.70;15.77;;;;;;;20.29;nan;99022.56;5057802;28;20736;-80
2023/05/21 06:10:49;;;;;;;22.67;17.10;;;;;;;20.48;nan;99023.97;5076145;28;20470;-81
2023/05/21 06:13:14;;;;;;;26.37;17.00;;;;;;;20.74;nan;99022.84;5054056;28;21246;-80
2023/05/21 06:15:41;;;;;;;19.33;17.10;;;;;;;21.03;nan;99024.78;5055025;28;20255;-80
2023/05/21 06:18:07;;;;;;;23.20;17.20;;;;;;;21.35;nan;99026.34;5056287;28;20212;-80
2023/05/21 06:20:33;;;;;;;19.90;15.00;;;;;;;21.72;nan;99014.00;5056282;28;20514;-80
2023/05/21 06:22:59;;;;;;;21.17;16.67;;;;;;;21.98;nan;99010.00;5054750;28;20476;-82
2023/05/21 06:25:25;;;;;;;20.10;15.20;;;;;;;22.12;nan;99017.22;5053121;28;20809;-81
2023/05/21 06:27:51;;;;;;;18.80;16.30;;;;;;;22.21;nan;99010.75;5053006;28;20954;-81
2023/05/21 06:30:22;;;;;;;18.67;14.30;;;;;;;22.43;nan;99021.50;5054347;28;20388;-80
2023/05/21 06:32:47;;;;;;;20.40;15.63;;;;;;;22.60;nan;99014.06;5052958;28;20473;-81
2023/05/21 06:35:13;;;;;;;22.08;17.27;;;;;;;22.59;nan;99017.78;5053680;28;20535;-80
2023/05/21 06:37:39;;;;;;;19.63;17.00;;;;;;;22.47;nan;99025.47;5056881;28;20896;-80
2023/05/21 06:40:06;;;;;;;17.33;15.27;;;;;;;22.39;nan;99022.91;5051522;28;20201;-80
2023/05/21 06:42:32;;;;;;;17.90;14.90;;;;;;;22.45;nan;99020.31;5054129;28;20482;-80
2023/05/21 06:45:29;;;;;;;19.33;16.20;;;;;;;22.49;nan;99023.41;5056849;28;20457;-80
2023/05/21 06:47:59;;;;;;;22.07;16.23;;;;;;;22.65;nan;99019.69;5054799;28;20827;-80
2023/05/21 06:50:25;;;;;;;19.67;15.03;;;;;;;22.83;nan;99019.25;5055502;28;20450;-80
2023/05/21 06:52:50;;;;;;;19.20;14.40;;;;;;;23.05;nan;99028.97;5054756;28;21150;-80
2023/05/21 06:55:16;;;;;;;17.93;15.30;;;;;;;23.31;nan;99017.66;5054864;28;20233;-80
2023/05/21 06:58:00;;;;;;;22.60;16.10;;;;;;;23.63;nan;99013.56;5056208;28;20222;-81
2023/05/21 07:00:26;;;;;;;17.83;15.97;;;;;;;23.96;nan;99004.91;5059619;28;20443;-81
2023/05/21 07:02:52;;;;;;;18.80;16.07;;;;;;;24.17;nan;99021.91;5054038;28;20532;-81
2023/05/21 07:05:18;;;;;;;23.73;17.13;;;;;;;24.36;nan;99010.44;5056702;28;20550;-80
2023/05/21 07:07:43;;;;;;;20.70;16.50;;;;;;;24.50;nan;99011.34;5054506;28;20219;-81
2023/05/21 07:10:09;;;;;;;23.43;17.30;;;;;;;24.63;nan;99018.63;5054836;28;20273;-81
2023/05/21 07:12:34;;;;;;;19.07;15.17;;;;;;;24.71;nan;99023.81;5053256;28;20950;-82
2023/05/21 07:15:02;;;;;;;19.73;16.80;;;;;;;24.69;nan;99015.94;5048121;28;20229;-80
2023/05/21 07:17:28;;;;;;;21.73;14.90;;;;;;;24.70;nan;99016.75;5047350;28;20558;-81
2023/05/21 07:19:54;;;;;;;20.47;16.20;;;;;;;24.73;nan;99016.34;5051140;28;20452;-81
2023/05/21 07:22:20;;;;;;;19.87;15.83;;;;;;;24.81;nan;99013.47;5072435;28;20482;-81
2023/05/21 07:24:46;;;;;;;19.60;15.53;;;;;;;24.92;nan;99018.25;5054442;28;20439;-81
2023/05/21 07:27:11;;;;;;;17.83;14.80;;;;;;;25.05;nan;99009.38;5049123;28;20248;-81
2023/05/21 07:29:36;;;;;;;18.60;15.63;;;;;;;25.12;nan;99012.06;5048159;28;20236;-81
2023/05/21 07:32:02;;;;;;;18.07;14.30;;;;;;;25.31;nan;99013.13;5050218;28;20912;-81
2023/05/21 07:34:28;;;;;;;20.40;16.43;;;;;;;25.48;nan;99014.34;5047466;28;20223;-82
2023/05/21 07:36:54;;;;;;;21.17;15.87;;;;;;;25.57;nan;99004.19;5049475;28;20271;-83
2023/05/21 07:39:20;;;;;;;19.00;16.70;;;;;;;25.73;nan;99001.06;5064659;28;20451;-82
2023/05/21 07:41:46;;;;;;;20.40;14.77;;;;;;;25.92;nan;99007.44;5047417;28;20470;-83
2023/05/21 07:44:12;;;;;;;20.10;16.30;;;;;;;26.11;nan;98997.66;5049256;28;21517;-83
2023/05/21 07:46:40;;;;;;;19.30;15.77;;;;;;;26.24;nan;98988.69;5046272;28;20212;-83
2023/05/21 07:49:06;;;;;;;19.87;14.63;;;;;;;26.39;nan;98996.53;5051964;28;20419;-83
2023/05/21 07:51:32;;;;;;;16.90;14.53;;;;;;;26.65;nan;98993.72;5045048;28;20981;-83
2023/05/21 07:53:57;;;;;;;18.63;14.00;;;;;;;26.90;nan;98996.44;5053452;28;20198;-83
2023/05/21 07:56:31;;;;;;;20.63;15.53;;;;;;;27.04;nan;98994.47;5051212;28;20293;-84
2023/05/21 07:58:57;;;;;;;17.33;14.40;;;;;;;27.11;nan;98987.16;5070395;28;20521;-83
2023/05/21 08:01:24;;;;;;;21.10;17.00;;;;;;;27.25;nan;98987.06;5049174;28;20537;-83
2023/05/21 08:03:49;;;;;;;18.27;14.80;;;;;;;27.21;nan;98989.38;5048302;28;20557;-83
2023/05/21 08:06:14;;;;;;;15.17;13.53;;;;;;;27.20;nan;98984.22;5052793;28;21334;-83
2023/05/21 08:08:40;;;;;;;15.83;13.70;;;;;;;27.15;nan;98979.44;5048001;28;20215;-83
2023/05/21 08:11:05;;;;;;;19.60;15.20;;;;;;;27.05;nan;98989.88;5071062;28;20193;-83
2023/05/21 08:13:32;;;;;;;17.37;14.70;;;;;;;26.85;nan;98992.75;5050295;28;20672;-83
2023/05/21 08:15:57;;;;;;;17.60;14.70;;;;;;;26.53;nan;98991.91;5046668;28;22265;-83
2023/05/21 08:18:24;;;;;;;19.80;15.37;;;;;;;26.26;nan;98984.75;5046923;28;20575;-84
2023/05/21 08:20:53;;;;;;;20.40;15.27;;;;;;;26.18;nan;98985.00;5045543;28;20415;-83
2023/05/21 08:23:19;;;;;;;17.80;15.50;;;;;;;26.12;nan;98976.97;5045826;28;20447;-82
2023/05/21 08:25:49;;;;;;;19.90;16.07;;;;;;;26.11;nan;98981.50;5046036;28;20951;-83
2023/05/21 08:28:14;;;;;;;19.73;16.07;;;;;;;26.02;nan;98980.09;5050808;28;20415;-83
2023/05/21 08:30:40;;;;;;;17.87;14.80;;;;;;;25.97;nan;98972.66;5046147;28;20294;-84
2023/05/21 08:33:05;;;;;;;17.97;14.47;;;;;;;25.88;nan;98975.81;5051639;28;20209;-82
2023/05/21 08:35:32;;;;;;;17.93;13.73;;;;;;;25.85;nan;98976.25;5053725;28;20190;-83
2023/05/21 08:38:27;;;;;;;17.07;14.70;;;;;;;25.92;nan;98977.03;5092439;22;20664;-81
2023/05/21 08:40:59;;;;;;;14.93;13.40;;;;;;;25.93;nan;98976.00;5061817;28;20507;-79
2023/05/21 08:43:28;;;;;;;16.43;14.73;;;;;;;25.98;nan;98982.41;5062363;28;20555;-83
2023/05/21 08:45:58;;;;;;;18.03;13.53;;;;;;;26.02;nan;98972.03;5060143;28;20460;-82
2023/05/21 08:48:27;;;;;;;18.80;14.37;;;;;;;26.07;nan;98971.41;5059906;28;20436;-84
2023/05/21 08:50:53;;;;;;;17.43;15.60;;;;;;;26.03;nan;98973.66;5080654;28;20510;-84
2023/05/21 08:53:26;;;;;;;18.80;16.63;;;;;;;26.08;nan;98970.34;5059838;28;20684;-82
2023/05/21 08:55:54;;;;;;;18.90;14.63;;;;;;;25.95;nan;98976.59;5061677;28;20446;-83
2023/05/21 08:58:21;;;;;;;18.27;14.40;;;;;;;25.97;nan;98971.84;5059490;28;20976;-83
2023/05/21 09:00:47;;;;;;;14.50;12.80;;;;;;;25.98;nan;98971.66;5059923;28;20806;-82
2023/05/21 09:03:14;;;;;;;18.55;15.07;;;;;;;26.14;nan;98973.03;5061311;28;20484;-82
2023/05/21 09:05:42;;;;;;;19.60;16.90;;;;;;;26.34;nan;98974.78;5060947;28;20522;-83
2023/05/21 09:08:13;;;;;;;18.43;14.73;;;;;;;26.46;nan;98989.22;5061393;28;20262;-83
2023/05/21 09:11:01;;;;;;;17.27;14.67;;;;;;;26.19;nan;98975.91;5081617;28;20473;-83
2023/05/21 09:13:33;;;;;;;16.60;14.67;;;;;;;26.02;nan;98975.53;5060072;28;20556;-83
2023/05/21 09:16:01;;;;;;;17.33;14.97;;;;;;;26.09;nan;98974.72;5057350;28;20913;-84
2023/05/21 09:18:27;;;;;;;18.93;16.23;;;;;;;26.23;nan;98979.81;5075052;28;20983;-84
2023/05/21 09:21:26;;;;;;;20.70;14.17;;;;;;;26.18;nan;98976.09;5058403;28;20440;-84
2023/05/21 09:23:55;;;;;;;15.30;13.70;;;;;;;26.20;nan;98976.72;5058490;28;20444;-84
2023/05/21 09:26:22;;;;;;;20.27;16.00;;;;;;;26.25;nan;98972.34;5060004;28;20482;-83
2023/05/21 09:28:48;;;;;;;16.30;14.10;;;;;;;26.33;nan;98973.97;5056406;28;20450;-85
2023/05/21 09:31:13;;;;;;;17.90;14.17;;;;;;;26.44;nan;98975.16;5074367;28;20485;-85
2023/05/21 09:33:45;;;;;;;20.23;15.37;;;;;;;26.31;nan;98976.03;5075219;28;20204;-84
2023/05/21 09:36:10;;;;;;;18.03;14.70;;;;;;;26.27;nan;98977.50;5058354;28;20207;-84
2023/05/21 09:38:37;;;;;;;16.70;14.77;;;;;;;26.34;nan;98974.78;5058588;28;20535;-84
2023/05/21 09:41:05;;;;;;;17.37;14.50;;;;;;;26.37;nan;98968.97;5058099;28;20669;-84
2023/05/21 09:43:30;;;;;;;15.77;13.93;;;;;;;26.38;nan;98976.00;5058650;28;20463;-84
2023/05/21 09:45:56;;;;;;;18.70;16.50;;;;;;;26.36;nan;98968.16;5075261;28;20467;-84
2023/05/21 09:48:31;;;;;;;15.77;13.77;;;;;;;26.38;nan;98968.78;5054803;28;20202;-84
2023/05/21 09:51:09;;;;;;;18.30;14.70;;;;;;;26.40;nan;98973.91;5054618;28;20476;-85
2023/05/21 09:53:35;;;;;;;16.50;14.27;;;;;;;26.55;nan;98969.09;5054242;28;20579;-85
2023/05/21 09:56:02;;;;;;;14.97;13.37;;;;;;;26.77;nan;98974.16;5078217;28;20613;-84
2023/05/21 09:58:28;;;;;;;15.77;13.97;;;;;;;26.96;nan;98965.09;5080692;28;20590;-84
2023/05/21 10:00:53;;;;;;;17.33;14.97;;;;;;;27.13;nan;98965.34;5076731;28;21237;-84
2023/05/21 10:03:22;;;;;;;17.50;14.17;;;;;;;27.22;nan;98960.53;5075906;28;20291;-84
2023/05/21 10:05:50;;;;;;;19.13;14.53;;;;;;;27.28;nan;98960.47;5074905;28;20670;-84
2023/05/21 10:08:17;;;;;;;16.20;13.83;;;;;;;27.33;nan;98957.94;5054256;28;20590;-85
2023/05/21 10:10:45;;;;;;;19.70;14.40;;;;;;;27.42;nan;98947.69;5072027;28;20475;-85
2023/05/21 10:13:13;;;;;;;15.40;13.30;;;;;;;27.46;nan;98951.56;5075135;28;20958;-84
2023/05/21 10:15:44;;;;;;;15.50;13.57;;;;;;;27.45;nan;98944.53;5073763;28;20476;-83
2023/05/21 10:18:12;;;;;;;18.80;14.63;;;;;;;27.41;nan;98943.34;5074695;28;20522;-83
2023/05/21 10:20:38;;;;;;;17.43;13.53;;;;;;;27.42;nan;98944.19;5071253;28;20467;-83
2023/05/21 10:23:04;;;;;;;18.40;15.07;;;;;;;27.48;nan;98937.88;5072821;28;20514;-85
2023/05/21 10:25:31;;;;;;;16.70;13.30;;;;;;;27.48;nan;98938.69;5072007;28;20563;-85
2023/05/21 10:27:56;;;;;;;17.03;14.23;;;;;;;27.46;nan;98938.09;5072788;28;20382;-86
2023/05/21 10:30:23;;;;;;;19.40;15.57;;;;;;;27.40;nan;98940.88;5071944;28;20465;-86
2023/05/21 10:32:49;;;;;;;15.03;13.37;;;;;;;27.41;nan;98931.72;5071987;28;21155;-85
2023/05/21 10:35:18;;;;;;;14.93;13.40;;;;;;;27.50;nan;98936.59;5071305;28;21156;-85
2023/05/21 10:37:44;;;;;;;16.57;14.77;;;;;;;27.55;nan;98934.06;5073721;28;20973;-85
2023/05/21 10:40:10;;;;;;;15.67;14.07;;;;;;;27.55;nan;98939.47;5075024;28;21178;-85
2023/05/21 10:43:07;;;;;;;17.80;15.00;;;;;;;27.57;nan;98937.38;5071841;28;20495;-86
2023/05/21 10:45:55;;;;;;;17.17;13.27;;;;;;;27.62;nan;98930.47;5030830;28;20456;-85
2023/05/21 10:48:57;;;;;;;18.47;14.20;;;;;;;27.72;nan;98928.06;5076753;28;21253;-84
2023/05/21 10:51:27;;;;;;;16.87;12.37;;;;;;;27.77;nan;98931.75;5072787;28;20588;-84
2023/05/21 10:54:30;;;;;;;15.40;13.27;;;;;;;27.84;nan;98923.59;5073829;28;20476;-85
2023/05/21 10:57:33;;;;;;;16.33;14.57;;;;;;;27.87;nan;98917.75;5071562;28;20477;-85
2023/05/21 11:00:00;;;;;;;16.60;13.57;;;;;;;27.98;nan;98916.97;5073087;28;20858;-83
2023/05/21 11:02:26;;;;;;;16.27;14.17;;;;;;;27.85;nan;98919.03;5054152;28;20477;-84
2023/05/21 11:04:59;;;;;;;14.47;13.00;;;;;;;27.80;nan;98914.31;5074269;28;20438;-86
2023/05/21 11:07:52;;;;;;;17.80;14.77;;;;;;;27.76;nan;98923.84;5069672;28;20450;-84
2023/05/21 11:10:43;;;;;;;18.47;14.73;;;;;;;27.52;nan;98907.53;5066306;28;20464;-84
2023/05/21 11:13:15;;;;;;;17.13;14.90;;;;;;;27.46;nan;98911.13;5073725;28;20461;-85
2023/05/21 11:15:56;;;;;;;15.67;12.23;;;;;;;27.57;nan;98915.78;5072057;28;20470;-83
2023/05/21 11:18:23;;;;;;;16.67;14.10;;;;;;;27.57;nan;98907.69;5071577;28;21276;-84
2023/05/21 11:20:51;;;;;;;14.80;12.23;;;;;;;27.64;nan;98914.88;5071908;28;20973;-84
2023/05/21 11:23:19;;;;;;;16.37;14.43;;;;;;;27.73;nan;98910.81;5073265;28;20502;-83
2023/05/21 11:25:59;;;;;;;16.07;13.57;;;;;;;27.76;nan;98913.06;5071983;28;20466;-85
2023/05/21 11:28:32;;;;;;;12.67;11.47;;;;;;;27.80;nan;98906.22;5075509;28;20473;-84
2023/05/21 11:31:26;;;;;;;14.43;12.90;;;;;;;27.78;nan;98908.25;5053142;28;21099;-85
2023/05/21 11:34:09;;;;;;;14.47;12.97;;;;;;;27.73;nan;98910.81;5077691;28;20583;-85
2023/05/21 11:36:48;;;;;;;16.70;12.37;;;;;;;27.68;nan;98903.41;5058585;28;20551;-85
2023/05/21 11:39:20;;;;;;;14.87;12.70;;;;;;;27.61;nan;98909.94;5080871;28;20492;-84